createdAt,value
2023-02-04T00:01:15.693Z,2.13
2023-02-04T00:03:42.078Z,4.33
2023-02-04T00:06:08.483Z,2.27
2023-02-04T00:08:36.821Z,2.13
2023-02-04T00:11:07.087Z,2.50
2023-02-04T00:13:33.457Z,2.53
2023-02-04T00:15:59.832Z,2.20
2023-02-04T00:18:26.286Z,2.30
2023-02-04T00:20:52.727Z,2.10
2023-02-04T00:23:19.127Z,2.40
2023-02-04T00:25:45.522Z,1.97
2023-02-04T00:28:12.622Z,2.17
2023-02-04T00:30:38.996Z,2.37
2023-02-04T00:33:05.371Z,2.40
2023-02-04T00:35:31.855Z,1.97
2023-02-04T00:37:58.214Z,2.40
2023-02-04T00:40:25.510Z,2.03
2023-02-04T00:42:51.888Z,2.20
2023-02-04T00:45:19.027Z,2.40
2023-02-04T00:47:45.422Z,2.40
2023-02-04T00:50:11.959Z,2.33
2023-02-04T00:52:38.447Z,2.07
2023-02-04T00:55:07.216Z,2.70
2023-02-04T00:57:33.694Z,2.17
2023-02-04T01:00:00.142Z,2.67
2023-02-04T01:02:27.226Z,2.23
2023-02-04T01:04:53.685Z,1.80
2023-02-04T01:07:20.182Z,2.17
2023-02-04T01:09:46.573Z,1.80
2023-02-04T01:12:12.957Z,2.17
2023-02-04T01:14:39.492Z,2.60
2023-02-04T01:17:05.993Z,4.33
2023-02-04T01:19:33.085Z,2.20
2023-02-04T01:21:59.465Z,2.40
2023-02-04T01:24:25.853Z,2.70
2023-02-04T01:27:10.697Z,2.60
2023-02-04T01:29:37.059Z,2.30
2023-02-04T01:32:03.648Z,3.00
2023-02-04T01:34:31.079Z,3.97
2023-02-04T01:36:58.153Z,2.90
2023-02-04T01:39:24.521Z,3.90
2023-02-04T01:41:51.008Z,2.90
2023-02-04T01:44:17.491Z,2.43
2023-02-04T01:46:44.005Z,3.73
2023-02-04T01:49:11.128Z,2.00
2023-02-04T01:51:38.752Z,2.17
2023-02-04T01:54:09.234Z,2.10
2023-02-04T01:56:35.666Z,1.90
2023-02-04T01:59:02.119Z,2.07
2023-02-04T02:01:36.811Z,4.03
2023-02-04T02:04:03.654Z,3.57
2023-02-04T02:06:30.224Z,3.47
2023-02-04T02:08:57.642Z,5.30
2023-02-04T02:11:25.267Z,5.67
2023-02-04T02:13:52.881Z,5.87
2023-02-04T02:16:19.344Z,4.63
2023-02-04T02:18:46.084Z,5.07
2023-02-04T02:21:14.249Z,7.47
2023-02-04T02:23:47.192Z,4.67
2023-02-04T02:26:14.816Z,6.40
2023-02-04T02:28:41.703Z,4.67
2023-02-04T02:31:08.779Z,5.40
2023-02-04T02:33:36.362Z,5.97
2023-02-04T02:36:03.114Z,6.53
2023-02-04T02:38:29.535Z,6.13
2023-02-04T02:40:56.640Z,7.80
2023-02-04T02:43:26.500Z,6.53
2023-02-04T02:45:55.444Z,9.40
2023-02-04T02:48:22.356Z,6.40
2023-02-04T02:50:48.957Z,11.50
2023-02-04T02:53:18.057Z,7.73
2023-02-04T02:55:46.009Z,8.87
2023-02-04T02:58:21.178Z,10.30
2023-02-04T03:00:47.554Z,10.17
2023-02-04T03:03:21.483Z,8.57
2023-02-04T03:05:51.917Z,12.33
2023-02-04T03:08:19.454Z,11.43
2023-02-04T03:10:46.350Z,10.07
2023-02-04T03:13:14.725Z,7.27
2023-02-04T03:15:44.421Z,7.67
2023-02-04T03:18:11.778Z,10.03
2023-02-04T03:20:40.228Z,8.23
2023-02-04T03:23:06.647Z,6.93
2023-02-04T03:25:33.731Z,11.13
2023-02-04T03:28:00.379Z,6.93
2023-02-04T03:30:27.118Z,7.30
2023-02-04T03:32:54.951Z,10.80
2023-02-04T03:35:21.411Z,9.17
2023-02-04T03:37:47.764Z,9.23
2023-02-04T03:40:14.294Z,11.57
2023-02-04T03:42:40.699Z,11.57
2023-02-04T03:45:07.979Z,9.93
2023-02-04T03:47:34.450Z,9.60
2023-02-04T03:50:01.642Z,8.83
2023-02-04T03:52:28.060Z,10.10
2023-02-04T03:54:54.510Z,13.60
2023-02-04T03:57:21.007Z,5.60
2023-02-04T03:59:47.368Z,10.93
2023-02-04T04:02:13.841Z,8.57
2023-02-04T04:04:40.270Z,11.70
2023-02-04T04:07:07.514Z,10.67
2023-02-04T04:09:33.894Z,10.83
2023-02-04T04:12:00.262Z,14.00
2023-02-04T04:14:26.591Z,11.27
2023-02-04T04:16:53.000Z,9.60
2023-02-04T04:19:19.368Z,10.80
2023-02-04T04:21:45.775Z,11.77
2023-02-04T04:24:12.764Z,11.73
2023-02-04T04:26:39.183Z,11.20
2023-02-04T04:29:05.524Z,15.40
2023-02-04T04:31:31.989Z,8.57
2023-02-04T04:33:58.427Z,9.83
2023-02-04T04:36:24.900Z,12.27
2023-02-04T04:38:51.309Z,11.27
2023-02-04T04:41:18.341Z,10.57
2023-02-04T04:43:44.752Z,11.30
2023-02-04T04:46:11.111Z,11.30
2023-02-04T04:48:37.851Z,12.43
2023-02-04T04:51:04.449Z,13.60
2023-02-04T04:53:30.841Z,9.50
2023-02-04T04:55:57.191Z,11.07
2023-02-04T04:58:24.219Z,9.03
2023-02-04T05:00:50.772Z,13.17
2023-02-04T05:03:17.220Z,13.17
2023-02-04T05:05:43.620Z,11.90
2023-02-04T05:08:12.614Z,10.30
2023-02-04T05:10:39.042Z,14.37
2023-02-04T05:13:05.460Z,12.23
2023-02-04T05:15:32.473Z,12.23
2023-02-04T05:17:58.859Z,8.90
2023-02-04T05:20:25.337Z,10.97
2023-02-04T05:22:52.001Z,9.27
2023-02-04T05:25:18.464Z,11.23
2023-02-04T05:27:45.132Z,11.43
2023-02-04T05:30:12.602Z,12.13
2023-02-04T05:32:39.890Z,18.17
2023-02-04T05:35:06.792Z,10.73
2023-02-04T05:37:33.322Z,11.67
2023-02-04T05:39:59.711Z,11.07
2023-02-04T05:42:26.098Z,15.70
2023-02-04T05:44:52.469Z,10.57
2023-02-04T05:47:19.765Z,11.57
2023-02-04T05:49:46.856Z,11.37
2023-02-04T05:52:13.266Z,9.50
2023-02-04T05:54:39.664Z,12.43
2023-02-04T05:57:06.035Z,13.00
2023-02-04T05:59:32.425Z,13.60
2023-02-04T06:01:58.819Z,17.60
2023-02-04T06:04:25.271Z,16.03
2023-02-04T06:06:52.379Z,15.70
2023-02-04T06:09:18.768Z,13.70
2023-02-04T06:11:45.114Z,11.90
2023-02-04T06:14:11.526Z,14.77
2023-02-04T06:16:38.002Z,11.73
2023-02-04T06:19:04.447Z,9.67
2023-02-04T06:21:30.817Z,10.13
2023-02-04T06:23:57.862Z,14.57
2023-02-04T06:26:24.257Z,9.53
2023-02-04T06:28:50.643Z,13.73
2023-02-04T06:31:17.140Z,13.73
2023-02-04T06:33:43.594Z,11.57
2023-02-04T06:36:10.018Z,15.63
2023-02-04T06:38:36.397Z,10.43
2023-02-04T06:41:03.537Z,12.40
2023-02-04T06:43:29.981Z,13.27
2023-02-04T06:45:56.442Z,12.37
2023-02-04T06:48:22.889Z,11.70
2023-02-04T06:50:49.278Z,12.53
2023-02-04T06:53:15.672Z,12.33
2023-02-04T06:55:42.049Z,10.87
2023-02-04T06:58:09.231Z,10.23
2023-02-04T07:00:35.686Z,11.93
2023-02-04T07:03:02.136Z,9.77
2023-02-04T07:05:28.535Z,9.40
2023-02-04T07:07:54.936Z,13.73
2023-02-04T07:10:21.363Z,13.47
2023-02-04T07:12:47.766Z,12.90
2023-02-04T07:15:14.953Z,12.70
2023-02-04T07:17:41.343Z,11.63
2023-02-04T07:20:09.216Z,11.00
2023-02-04T07:22:35.602Z,8.40
2023-02-04T07:25:02.019Z,9.03
2023-02-04T07:27:28.437Z,10.67
2023-02-04T07:29:54.847Z,11.43
2023-02-04T07:32:21.906Z,12.77
2023-02-04T07:34:48.274Z,11.37
2023-02-04T07:37:14.735Z,10.40
2023-02-04T07:39:41.227Z,10.17
2023-02-04T07:42:07.886Z,6.53
2023-02-04T07:44:43.122Z,9.83
2023-02-04T07:47:09.910Z,10.70
2023-02-04T07:49:36.990Z,10.47
2023-02-04T07:52:03.542Z,11.67
2023-02-04T07:54:29.916Z,6.83
2023-02-04T07:56:56.285Z,13.20
2023-02-04T07:59:22.706Z,8.23
2023-02-04T08:01:49.338Z,8.80
2023-02-04T08:04:15.721Z,10.90
2023-02-04T08:06:43.819Z,9.07
2023-02-04T08:09:10.243Z,9.33
2023-02-04T08:11:36.644Z,9.37
2023-02-04T08:14:03.035Z,10.63
2023-02-04T08:16:29.407Z,10.17
2023-02-04T08:18:55.802Z,8.30
2023-02-04T08:21:22.171Z,12.20
2023-02-04T08:23:49.166Z,7.80
2023-02-04T08:26:15.569Z,8.77
2023-02-04T08:28:41.949Z,6.47
2023-02-04T08:31:11.098Z,11.87
2023-02-04T08:33:37.854Z,7.83
2023-02-04T08:36:05.127Z,8.10
2023-02-04T08:38:31.637Z,11.53
2023-02-04T08:40:59.229Z,9.57
2023-02-04T08:43:25.658Z,11.67
2023-02-04T08:45:52.115Z,9.97
2023-02-04T08:48:18.550Z,10.00
2023-02-04T08:50:44.993Z,10.33
2023-02-04T08:53:11.373Z,8.10
2023-02-04T08:55:37.825Z,9.03
2023-02-04T08:58:04.926Z,9.77
2023-02-04T09:00:33.004Z,11.17
2023-02-04T09:02:59.557Z,6.97
2023-02-04T09:05:25.966Z,10.87
2023-02-04T09:07:52.361Z,10.33
2023-02-04T09:10:18.955Z,8.97
2023-02-04T09:12:45.368Z,9.60
2023-02-04T09:15:12.695Z,8.93
2023-02-04T09:17:39.477Z,13.13
2023-02-04T09:20:06.815Z,14.10
2023-02-04T09:22:33.309Z,12.53
2023-02-04T09:24:59.675Z,8.77
2023-02-04T09:27:26.032Z,9.27
2023-02-04T09:29:52.392Z,6.10
2023-02-04T09:32:19.480Z,10.50
2023-02-04T09:34:45.827Z,14.33
2023-02-04T09:37:12.257Z,10.93
2023-02-04T09:39:38.888Z,11.93
2023-02-04T09:42:05.408Z,10.23
2023-02-04T09:44:32.018Z,8.30
2023-02-04T09:47:00.580Z,11.30
2023-02-04T09:49:28.015Z,11.20
2023-02-04T09:51:55.279Z,9.73
2023-02-04T09:54:23.242Z,11.97
2023-02-04T09:56:50.136Z,8.23
2023-02-04T09:59:19.114Z,8.33
2023-02-04T10:01:47.579Z,13.50
2023-02-04T10:04:15.073Z,10.27
2023-02-04T10:06:43.700Z,6.40
2023-02-04T10:09:11.177Z,12.07
2023-02-04T10:11:39.463Z,10.63
2023-02-04T10:14:12.631Z,9.70
2023-02-04T10:16:42.823Z,9.57
2023-02-04T10:19:14.210Z,6.03
2023-02-04T10:21:41.268Z,10.97
2023-02-04T10:24:13.937Z,9.80
2023-02-04T10:26:40.336Z,12.27
2023-02-04T10:29:13.394Z,10.47
2023-02-04T10:31:42.475Z,10.03
2023-02-04T10:34:14.905Z,10.67
2023-02-04T10:36:44.285Z,9.80
2023-02-04T10:39:14.097Z,11.80
2023-02-04T10:41:49.938Z,11.73
2023-02-04T10:44:19.202Z,7.33
2023-02-04T10:46:45.587Z,9.50
2023-02-04T10:49:18.723Z,9.23
2023-02-04T10:51:45.786Z,7.43
2023-02-04T10:54:32.158Z,9.23
2023-02-04T10:57:00.285Z,11.57
2023-02-04T10:59:27.276Z,9.37
2023-02-04T11:01:55.452Z,13.20
2023-02-04T11:04:21.945Z,9.73
2023-02-04T11:06:49.880Z,12.07
2023-02-04T11:09:16.981Z,8.30
2023-02-04T11:11:48.012Z,23.03
2023-02-04T11:14:24.560Z,9.40
2023-02-04T11:16:51.512Z,9.03
2023-02-04T11:19:32.624Z,8.73
2023-02-04T11:22:06.171Z,9.13
2023-02-04T11:24:33.787Z,8.07
2023-02-04T11:27:06.892Z,6.83
2023-02-04T11:29:36.084Z,8.80
2023-02-04T11:32:04.686Z,6.60
2023-02-04T11:34:44.536Z,7.53
2023-02-04T11:37:28.325Z,8.33
2023-02-04T11:39:59.614Z,6.13
2023-02-04T11:42:31.615Z,6.97
2023-02-04T11:45:00.215Z,6.07
2023-02-04T11:47:27.858Z,5.83
2023-02-04T11:49:57.381Z,2.60
2023-02-04T11:52:23.838Z,7.63
2023-02-04T11:54:55.257Z,4.83
2023-02-04T11:57:22.029Z,4.90
2023-02-04T11:59:48.579Z,6.73
2023-02-04T12:02:17.316Z,4.37
2023-02-04T12:04:51.330Z,2.73
2023-02-04T12:07:23.799Z,6.47
2023-02-04T12:09:50.159Z,2.17
2023-02-04T12:12:24.407Z,3.93
2023-02-04T12:14:58.559Z,7.77
2023-02-04T12:17:24.973Z,2.83
2023-02-04T12:19:51.630Z,3.90
2023-02-04T12:22:18.036Z,1.90
2023-02-04T12:24:44.393Z,2.00
2023-02-04T12:27:10.821Z,3.07
2023-02-04T12:29:37.935Z,3.77
2023-02-04T12:32:04.618Z,2.90
2023-02-04T12:34:31.291Z,2.20
2023-02-04T12:36:57.714Z,3.07
2023-02-04T12:39:24.091Z,2.33
2023-02-04T12:41:50.451Z,1.83
2023-02-04T12:44:16.826Z,2.60
2023-02-04T12:46:43.937Z,3.67
2023-02-04T12:49:10.389Z,2.03
2023-02-04T12:51:36.768Z,2.60
2023-02-04T12:54:03.308Z,3.73
2023-02-04T12:56:29.744Z,2.63
2023-02-04T12:58:56.104Z,2.17
2023-02-04T13:01:22.480Z,2.53
2023-02-04T13:03:49.511Z,4.67
2023-02-04T13:06:15.987Z,2.97
2023-02-04T13:08:42.421Z,3.80
2023-02-04T13:11:08.818Z,3.20
2023-02-04T13:13:35.239Z,5.97
2023-02-04T13:16:02.868Z,2.77
2023-02-04T13:18:29.354Z,9.33
2023-02-04T13:20:56.390Z,3.00
2023-02-04T13:23:22.828Z,3.17
2023-02-04T13:25:49.161Z,3.90
2023-02-04T13:28:15.709Z,4.83
2023-02-04T13:30:42.230Z,5.30
2023-02-04T13:33:08.698Z,3.40
2023-02-04T13:35:35.261Z,5.00
2023-02-04T13:38:02.504Z,2.80
2023-02-04T13:40:28.907Z,4.37
2023-02-04T13:42:55.308Z,4.73
2023-02-04T13:45:21.764Z,5.57
2023-02-04T13:47:48.172Z,5.03
2023-02-04T13:50:15.049Z,4.80
2023-02-04T13:52:41.410Z,4.03
2023-02-04T13:55:08.742Z,4.63
2023-02-04T13:57:36.580Z,4.63
2023-02-04T14:00:04.213Z,2.77
2023-02-04T14:02:38.733Z,4.03
2023-02-04T14:05:05.785Z,4.90
2023-02-04T14:07:32.765Z,2.33
2023-02-04T14:09:59.172Z,3.23
2023-02-04T14:12:26.187Z,3.30
2023-02-04T14:14:53.099Z,3.97
2023-02-04T14:17:19.475Z,2.77
2023-02-04T14:19:45.835Z,3.07
2023-02-04T14:22:13.092Z,2.60
2023-02-04T14:24:41.728Z,2.93
2023-02-04T14:27:08.238Z,2.50
2023-02-04T14:29:35.584Z,3.17
2023-02-04T14:32:02.021Z,2.90
2023-02-04T14:34:28.589Z,3.73
2023-02-04T14:36:54.997Z,3.00
2023-02-04T14:39:21.384Z,3.63
2023-02-04T14:41:47.740Z,2.50
2023-02-04T14:44:19.758Z,2.27
2023-02-04T14:46:47.930Z,2.67
2023-02-04T14:49:14.404Z,1.93
2023-02-04T14:51:40.991Z,2.30
2023-02-04T14:54:07.399Z,6.07
2023-02-04T14:56:33.941Z,3.07
2023-02-04T14:59:00.305Z,3.37
2023-02-04T15:01:27.013Z,3.63
2023-02-04T15:03:54.099Z,3.47
2023-02-04T15:06:20.520Z,2.17
2023-02-04T15:08:46.976Z,2.17
2023-02-04T15:11:13.467Z,4.73
2023-02-04T15:13:39.923Z,2.53
2023-02-04T15:16:06.295Z,1.80
2023-02-04T15:18:32.925Z,2.00
2023-02-04T15:21:00.333Z,2.23
2023-02-04T15:23:26.738Z,3.47
2023-02-04T15:25:56.613Z,2.50
2023-02-04T15:28:23.056Z,2.20
2023-02-04T15:30:49.709Z,2.40
2023-02-04T15:33:16.259Z,2.13
2023-02-04T15:35:42.879Z,2.20
2023-02-04T15:38:10.084Z,4.63
2023-02-04T15:40:36.449Z,5.40
2023-02-04T15:43:02.847Z,5.93
2023-02-04T15:45:29.218Z,2.90
2023-02-04T15:47:55.679Z,5.43
2023-02-04T15:50:22.054Z,2.97
2023-02-04T15:52:48.858Z,2.10
2023-02-04T15:55:16.136Z,3.03
2023-02-04T15:57:42.514Z,2.40
2023-02-04T16:00:10.022Z,2.37
2023-02-04T16:02:36.457Z,2.60
2023-02-04T16:05:03.042Z,2.53
2023-02-04T16:07:29.440Z,2.97
2023-02-04T16:09:56.028Z,2.50
2023-02-04T16:12:23.077Z,2.30
2023-02-04T16:14:49.654Z,2.30
2023-02-04T16:17:17.762Z,2.25
2023-02-04T16:19:45.337Z,3.53
2023-02-04T16:22:11.820Z,2.03
2023-02-04T16:24:38.264Z,2.00
2023-02-04T16:27:05.164Z,2.30
2023-02-04T16:29:32.181Z,2.10
2023-02-04T16:31:58.613Z,2.67
2023-02-04T16:34:24.992Z,2.30
2023-02-04T16:36:51.449Z,3.13
2023-02-04T16:39:17.876Z,2.70
2023-02-04T16:41:44.285Z,3.00
2023-02-04T16:44:10.654Z,2.73
2023-02-04T16:46:37.727Z,3.23
2023-02-04T16:49:04.568Z,3.03
2023-02-04T16:51:30.949Z,2.07
2023-02-04T16:53:57.337Z,2.53
2023-02-04T16:56:23.828Z,2.80
2023-02-04T16:58:50.217Z,2.00
2023-02-04T17:01:16.738Z,2.40
2023-02-04T17:03:43.769Z,3.37
2023-02-04T17:06:10.143Z,2.87
2023-02-04T17:08:36.527Z,2.20
2023-02-04T17:11:21.100Z,2.57
2023-02-04T17:13:47.534Z,2.70
2023-02-04T17:16:13.950Z,2.40
2023-02-04T17:18:40.542Z,2.67
2023-02-04T17:21:07.573Z,2.47
2023-02-04T17:23:34.730Z,2.37
2023-02-04T17:26:01.245Z,4.90
2023-02-04T17:28:27.662Z,4.10
2023-02-04T17:30:54.244Z,3.07
2023-02-04T17:33:20.758Z,3.37
2023-02-04T17:35:47.203Z,3.40
2023-02-04T17:38:14.331Z,3.37
2023-02-04T17:40:41.847Z,3.40
2023-02-04T17:43:08.864Z,3.33
2023-02-04T17:45:35.798Z,3.60
2023-02-04T17:48:05.484Z,4.40
2023-02-04T17:53:03.149Z,5.23
2023-02-04T17:55:31.232Z,4.30
2023-02-04T17:58:07.052Z,3.30
2023-02-04T18:00:33.969Z,3.73
2023-02-04T18:03:00.669Z,4.47
2023-02-04T18:05:28.795Z,3.47
2023-02-04T18:07:59.984Z,4.67
2023-02-04T18:10:31.544Z,3.67
2023-02-04T18:13:00.668Z,4.03
2023-02-04T18:15:29.293Z,3.53
2023-02-04T18:17:59.489Z,4.30
2023-02-04T18:20:25.877Z,3.33
2023-02-04T18:22:56.004Z,3.07
2023-02-04T18:25:23.242Z,3.53
2023-02-04T18:27:49.718Z,3.17
2023-02-04T18:30:20.549Z,2.93
2023-02-04T18:32:47.437Z,4.27
2023-02-04T18:35:39.988Z,3.10
2023-02-04T18:38:20.473Z,2.80
2023-02-04T18:40:47.592Z,2.90
2023-02-04T18:43:22.400Z,2.90
2023-02-04T18:45:50.035Z,3.00
2023-02-04T18:48:49.884Z,3.23
2023-02-04T18:51:25.435Z,2.83
2023-02-04T18:53:53.475Z,3.20
2023-02-04T18:56:19.839Z,3.07
2023-02-04T18:58:47.121Z,2.80
2023-02-04T19:01:22.998Z,2.97
2023-02-04T19:03:52.591Z,4.10
2023-02-04T19:06:25.536Z,3.30
2023-02-04T19:08:52.891Z,2.90
2023-02-04T19:11:33.290Z,3.50
2023-02-04T19:13:59.788Z,3.70
2023-02-04T19:16:33.417Z,3.27
2023-02-04T19:18:59.846Z,4.13
2023-02-04T19:21:28.627Z,3.60
2023-02-04T19:24:01.326Z,4.30
2023-02-04T19:26:32.498Z,3.40
2023-02-04T19:28:58.969Z,3.83
2023-02-04T19:31:32.193Z,3.30
2023-02-04T19:34:01.140Z,3.50
2023-02-04T19:36:33.632Z,3.60
2023-02-04T19:39:01.781Z,3.53
2023-02-04T19:41:33.762Z,4.00
2023-02-04T19:44:32.060Z,4.57
2023-02-04T19:47:17.798Z,4.23
2023-02-04T19:49:44.242Z,3.30
2023-02-04T19:52:26.674Z,3.80
2023-02-04T19:54:53.108Z,3.80
2023-02-04T19:57:23.911Z,3.73
2023-02-04T19:59:54.413Z,4.13
2023-02-04T20:02:32.219Z,3.70
2023-02-04T20:04:59.875Z,3.13
2023-02-04T20:07:27.653Z,3.33
2023-02-04T20:10:22.001Z,4.00
2023-02-04T20:12:49.669Z,5.10
2023-02-04T20:15:18.169Z,4.50
2023-02-04T20:17:46.519Z,5.80
2023-02-04T20:20:26.940Z,4.23
2023-02-04T20:22:55.428Z,5.03
2023-02-04T20:25:40.431Z,5.33
2023-02-04T20:28:16.703Z,5.97
2023-02-04T20:30:44.528Z,5.13
2023-02-04T20:33:25.751Z,12.13
2023-02-04T20:36:32.736Z,9.77
2023-02-04T20:39:16.956Z,9.37
2023-02-04T20:41:43.420Z,8.57
2023-02-04T20:44:15.700Z,11.10
2023-02-04T20:46:42.543Z,11.60
2023-02-04T20:49:22.768Z,11.00
2023-02-04T20:51:49.541Z,9.63
2023-02-04T20:54:17.020Z,11.67
2023-02-04T20:56:43.462Z,12.93
2023-02-04T20:59:26.150Z,12.40
2023-02-04T21:01:52.879Z,10.90
2023-02-04T21:04:23.538Z,11.10
2023-02-04T21:06:51.874Z,11.13
2023-02-04T21:09:22.451Z,10.17
2023-02-04T21:11:48.885Z,9.03
2023-02-04T21:14:15.467Z,9.87
2023-02-04T21:16:41.931Z,6.43
2023-02-04T21:19:09.387Z,7.63
2023-02-04T21:21:36.496Z,11.20
2023-02-04T21:24:03.158Z,7.20
2023-02-04T21:26:29.586Z,7.87
2023-02-04T21:28:56.013Z,7.83
2023-02-04T21:31:22.515Z,6.73
2023-02-04T21:33:49.157Z,8.30
2023-02-04T21:36:15.723Z,8.00
2023-02-04T21:38:43.147Z,9.50
2023-02-04T21:41:09.597Z,10.93
2023-02-04T21:43:36.193Z,9.67
2023-02-04T21:46:02.677Z,9.40
2023-02-04T21:48:29.041Z,8.20
2023-02-04T21:50:55.435Z,8.93
2023-02-04T21:53:21.965Z,10.67
2023-02-04T21:55:48.996Z,9.53
2023-02-04T21:58:15.409Z,10.70
2023-02-04T22:00:41.850Z,8.37
2023-02-04T22:03:12.761Z,10.53
2023-02-04T22:05:39.110Z,10.73
2023-02-04T22:08:05.527Z,10.23
2023-02-04T22:10:31.964Z,8.53
2023-02-04T22:13:17.342Z,9.87
2023-02-04T22:15:43.748Z,10.80
2023-02-04T22:18:10.517Z,9.27
2023-02-04T22:20:39.208Z,10.80
2023-02-04T22:23:06.137Z,10.40
2023-02-04T22:25:32.736Z,9.70
2023-02-04T22:28:00.159Z,10.73
2023-02-04T22:30:26.609Z,9.57
2023-02-04T22:32:53.919Z,11.50
2023-02-04T22:35:20.314Z,11.67
2023-02-04T22:37:46.712Z,10.87
2023-02-04T22:40:13.120Z,11.33
2023-02-04T22:42:39.791Z,11.70
2023-02-04T22:45:09.429Z,10.20
2023-02-04T22:47:35.899Z,10.23
2023-02-04T22:50:02.302Z,11.97
2023-02-04T22:52:28.696Z,9.77
2023-02-04T22:54:55.050Z,10.97
2023-02-04T22:57:21.415Z,10.93
2023-02-04T22:59:47.822Z,10.13
2023-02-04T23:02:14.861Z,8.87
2023-02-04T23:04:43.874Z,10.33
2023-02-04T23:07:10.897Z,10.17
2023-02-04T23:09:37.333Z,9.90
2023-02-04T23:12:12.117Z,9.53
2023-02-04T23:14:40.820Z,10.97
2023-02-04T23:17:07.487Z,9.60
2023-02-04T23:19:34.510Z,9.63
2023-02-04T23:22:01.074Z,10.17
2023-02-04T23:24:28.070Z,10.33
2023-02-04T23:26:54.472Z,12.50
2023-02-04T23:29:20.851Z,12.90
2023-02-04T23:31:47.246Z,11.50
2023-02-04T23:34:13.617Z,11.77
2023-02-04T23:36:41.809Z,12.33
2023-02-04T23:39:08.155Z,11.97
2023-02-04T23:41:34.487Z,12.50
2023-02-04T23:44:00.818Z,10.33
2023-02-04T23:46:27.169Z,11.00
2023-02-04T23:48:53.536Z,9.83
2023-02-04T23:51:19.904Z,11.63
2023-02-04T23:53:46.944Z,12.60
2023-02-04T23:56:13.337Z,9.10
2023-02-04T23:58:39.691Z,7.23
